Terminal Aerodrome Forecast
Issued by NWS La Crosse, WI

Home | Current Version | Previous Version | Text Only | Print | Product List | Glossary On
Versions: 1 2 3 4 5 6 7 8 9 10 11 12 13 14 15 16 17 18 19 20 21 22 23 24 25 26 27 28 29 30 31 32 33 34 35 36 37 38 39 40
000
FTUS43 KARX 111123 CCA
TAFLSE
TAF COR
KLSE 111123Z 1112/1212 11006KT 1 1/2SM -SN BR OVC011
      TEMPO 1112/1113 3/4SM -SN BR OVC009
     FM111300 11007KT 2SM -SN BR OVC015
     FM111600 12005KT 4SM -SN OVC015
     FM111800 12004KT P6SM OVC015
     FM120800 30010G19KT P6SM BKN025=

USA.gov is the U.S. government's official web portal to all federal, state and local government web resources and services.